Terminal Aerodrome Forecast
Issued by NWS

Home | Current Version | Previous Version | Text Only | Print | Product List | Glossary On
Versions: 1 2 3 4 5 6 7 8 9 10 11 12
000
FTUS44 KSJT 152334
TAFJCT
TAF
KJCT 152334Z 1600/1624 VRB02KT P6SM SCT250
     FM161600 18009KT P6SM BKN050
     FM161900 18007KT P6SM VCSH OVC025=

USA.gov is the U.S. government's official web portal to all federal, state and local government web resources and services.